Time;durP1;ratioP1;P1;durP2;ratioP2;P2;SDS_P1;SDS_P2;PMS_P1;PMS_P2;Temp;Humidity;BMP_temperature;BMP_pressure;BME280_temperature;BME280_humidity;BME280_pressure;Samples;Min_cycle;Max_cycle;Signal;HPM_P1;HPM_P2
2022/01/24 00:01:47;;;;;;;2.40;2.40;;;6.50;99.90;;;;;;6093394;23;20496;-86
2022/01/24 00:04:16;;;;;;;2.45;2.35;;;7.10;99.90;;;;;;6118803;23;20138;-86
2022/01/24 00:06:42;;;;;;;2.65;2.55;;;6.50;99.90;;;;;;6118153;23;20142;-86
2022/01/24 00:09:09;;;;;;;2.80;2.70;;;6.30;99.90;;;;;;6116920;23;20511;-86
2022/01/24 00:11:44;;;;;;;2.95;2.85;;;6.30;99.90;;;;;;6118361;23;20456;-86
2022/01/24 00:14:49;;;;;;;2.65;2.65;;;5.70;99.90;;;;;;6119469;23;20178;-85
2022/01/24 00:17:11;;;;;;;2.80;2.80;;;6.40;99.90;;;;;;6117004;23;20165;-85
2022/01/24 00:27:51;;;;;;;3.97;2.50;;;6.40;99.90;;;;;;6131971;23;20273;-86
2022/01/24 00:30:17;;;;;;;2.47;2.47;;;7.10;99.90;;;;;;6131483;23;20232;-86
2022/01/24 00:32:43;;;;;;;2.60;2.60;;;6.60;99.90;;;;;;6140917;23;20454;-86
2022/01/24 00:35:10;;;;;;;3.17;3.07;;;6.70;99.90;;;;;;6126885;23;20765;-87
2022/01/24 00:37:36;;;;;;;2.70;2.70;;;6.30;99.90;;;;;;6102988;23;20161;-86
2022/01/24 00:40:02;;;;;;;2.80;2.67;;;6.30;99.90;;;;;;6106504;23;20212;-86
2022/01/24 00:45:12;;;;;;;2.50;2.42;;;6.30;99.90;;;;;;6137652;23;20150;-87
2022/01/24 00:48:08;;;;;;;2.30;2.30;;;6.30;99.90;;;;;;6119567;23;20153;-88
2022/01/24 00:56:05;;;;;;;2.70;2.60;;;5.90;99.90;;;;;;6119267;23;20213;-86
2022/01/24 00:58:30;;;;;;;2.38;2.33;;;6.40;99.90;;;;;;6116820;23;20154;-86
2022/01/24 01:00:56;;;;;;;2.13;2.13;;;6.70;99.90;;;;;;6117545;23;20514;-85
2022/01/24 01:03:24;;;;;;;3.23;3.03;;;6.50;99.90;;;;;;6116099;23;20590;-86
2022/01/24 01:06:07;;;;;;;2.78;2.65;;;6.60;99.90;;;;;;6092045;23;20394;-86
2022/01/24 01:19:33;;;;;;;2.70;2.50;;;6.50;99.90;;;;;;6118259;23;20147;-85
2022/01/24 01:21:59;;;;;;;2.90;2.80;;;6.20;99.90;;;;;;6089464;23;20495;-85
2022/01/24 01:24:26;;;;;;;2.90;2.70;;;6.70;99.90;;;;;;6117810;23;20145;-85
2022/01/24 01:27:02;;;;;;;2.50;2.50;;;6.80;99.90;;;;;;6115093;23;20149;-85
2022/01/24 01:29:34;;;;;;;2.35;2.25;;;6.40;99.90;;;;;;6117410;23;20184;-86
2022/01/24 01:56:48;;;;;;;2.35;2.35;;;6.40;99.90;;;;;;6125702;23;20585;-86
2022/01/24 01:59:14;;;;;;;2.03;2.00;;;7.90;99.90;;;;;;6117977;23;20142;-86
2022/01/24 02:01:40;;;;;;;2.33;2.33;;;6.20;99.90;;;;;;6091592;23;20481;-87
2022/01/24 02:04:05;;;;;;;2.10;2.10;;;6.10;99.90;;;;;;6089225;23;20480;-86
2022/01/24 02:06:31;;;;;;;3.00;3.00;;;6.00;99.90;;;;;;6091764;23;20490;-86
2022/01/24 02:09:03;;;;;;;2.15;2.15;;;5.80;99.90;;;;;;6089226;23;20252;-86
2022/01/24 02:11:28;;;;;;;2.45;2.45;;;6.40;99.90;;;;;;6091988;23;20174;-85
2022/01/24 02:13:55;;;;;;;2.37;2.37;;;6.10;99.90;;;;;;6089518;23;20648;-86
2022/01/24 02:16:41;;;;;;;2.50;2.50;;;6.10;99.90;;;;;;6091595;23;20531;-85
2022/01/24 02:22:39;;;;;;;2.90;2.90;;;6.50;99.90;;;;;;6131860;23;20152;-85
2022/01/24 02:24:53;;;;;;;3.17;2.92;;;6.50;99.90;;;;;;6127251;23;20480;-86
2022/01/24 02:27:21;;;;;;;3.13;2.35;;;6.50;99.90;;;;;;6137883;23;20212;-86
2022/01/24 02:32:31;;;;;;;2.47;2.47;;;6.40;99.90;;;;;;6116053;23;20165;-86
2022/01/24 02:34:57;;;;;;;2.20;2.20;;;6.60;99.90;;;;;;6117320;23;20150;-85
2022/01/24 02:37:23;;;;;;;2.43;2.40;;;6.50;99.90;;;;;;6115483;23;20193;-85
2022/01/24 02:40:03;;;;;;;2.80;2.80;;;5.80;99.90;;;;;;6091264;23;20153;-85
2022/01/24 02:48:30;;;;;;;2.55;2.53;;;6.30;99.90;;;;;;6080872;23;20657;-85
2022/01/24 02:53:32;;;;;;;2.78;2.67;;;6.00;99.90;;;;;;6120149;23;20196;-85
2022/01/24 02:55:58;;;;;;;2.47;2.38;;;6.10;99.90;;;;;;6092908;23;20154;-85
2022/01/24 02:58:23;;;;;;;2.47;2.47;;;6.20;99.90;;;;;;6117037;23;20160;-85
2022/01/24 03:00:50;;;;;;;2.40;2.40;;;6.20;99.90;;;;;;6093281;23;20496;-85
2022/01/24 03:03:15;;;;;;;2.40;2.30;;;6.50;99.90;;;;;;6117076;23;20518;-85
2022/01/24 03:05:41;;;;;;;2.13;2.13;;;6.20;99.90;;;;;;6093185;23;20248;-86
2022/01/24 03:08:07;;;;;;;5.83;2.50;;;8.60;99.90;;;;;;6116898;23;20161;-86
2022/01/24 03:10:39;;;;;;;2.43;2.33;;;6.30;99.90;;;;;;6119456;23;20609;-85
2022/01/24 03:15:43;;;;;;;2.67;2.67;;;7.80;99.90;;;;;;6129778;23;20172;-86
2022/01/24 03:18:10;;;;;;;3.05;3.05;;;6.60;99.90;;;;;;6116768;23;20196;-86
2022/01/24 03:20:37;;;;;;;2.20;2.20;;;6.00;99.90;;;;;;6118838;23;20232;-86
2022/01/24 03:23:03;;;;;;;2.40;2.40;;;6.40;99.90;;;;;;6090402;23;20157;-86
2022/01/24 03:25:28;;;;;;;2.45;2.45;;;6.40;99.90;;;;;;6091565;23;20157;-85
2022/01/24 03:27:54;;;;;;;2.40;2.30;;;6.10;99.90;;;;;;6115234;23;20680;-85
2022/01/24 03:30:20;;;;;;;2.60;2.60;;;5.90;99.90;;;;;;6118055;23;20192;-85
2022/01/24 03:32:45;;;;;;;2.67;2.67;;;6.40;99.90;;;;;;6090810;23;20169;-86
2022/01/24 03:35:11;;;;;;;2.87;2.87;;;6.20;99.90;;;;;;6118400;23;20208;-86
2022/01/24 03:37:37;;;;;;;2.50;2.50;;;7.80;99.90;;;;;;6116527;23;20153;-86
2022/01/24 03:40:04;;;;;;;2.40;2.40;;;6.30;99.90;;;;;;6092734;23;20248;-86
2022/01/24 03:42:30;;;;;;;2.15;2.15;;;6.60;99.90;;;;;;6117880;23;20584;-86
2022/01/24 03:45:00;;;;;;;2.80;2.70;;;6.40;99.90;;;;;;6101530;23;20162;-86
2022/01/24 03:50:01;;;;;;;2.08;2.03;;;6.20;99.90;;;;;;6120443;23;20599;-86
2022/01/24 03:52:30;;;;;;;2.63;2.50;;;6.20;99.90;;;;;;6116701;23;20156;-85
2022/01/24 03:54:56;;;;;;;2.10;2.10;;;6.00;99.90;;;;;;6116901;23;20153;-86
2022/01/24 03:57:22;;;;;;;2.40;2.40;;;6.40;99.90;;;;;;6091371;23;20154;-86
2022/01/24 03:59:48;;;;;;;2.47;2.47;;;6.10;99.90;;;;;;6118059;23;20473;-86
2022/01/24 04:02:14;;;;;;;2.50;2.50;;;6.40;99.90;;;;;;6090113;23;20467;-87
2022/01/24 04:04:40;;;;;;;2.70;2.70;;;6.50;99.90;;;;;;6091865;23;20199;-86
2022/01/24 04:07:06;;;;;;;2.70;2.70;;;6.30;99.90;;;;;;6089472;23;20518;-86
2022/01/24 04:09:33;;;;;;;2.30;2.30;;;7.10;99.90;;;;;;6092314;23;20185;-86
2022/01/24 04:12:00;;;;;;;2.85;2.85;;;6.20;99.90;;;;;;6089995;23;20252;-86
2022/01/24 04:17:37;;;;;;;2.72;2.63;;;7.30;99.90;;;;;;6027514;23;20198;-86
2022/01/24 04:22:50;;;;;;;2.60;2.60;;;6.40;99.90;;;;;;6116339;23;20498;-86
2022/01/24 04:25:22;;;;;;;2.95;2.85;;;6.80;99.90;;;;;;6118957;23;20235;-85
2022/01/24 04:27:48;;;;;;;2.50;2.40;;;6.10;99.90;;;;;;6117033;23;20268;-84
2022/01/24 04:30:14;;;;;;;3.07;2.87;;;6.40;99.90;;;;;;6092291;23;20250;-85
2022/01/24 04:32:39;;;;;;;3.20;3.10;;;7.30;99.90;;;;;;6089982;23;20168;-84
2022/01/24 04:35:06;;;;;;;2.30;2.30;;;6.30;99.90;;;;;;6118330;23;20150;-85
2022/01/24 04:37:31;;;;;;;2.75;2.75;;;6.30;99.90;;;;;;6116424;23;20156;-85
2022/01/24 04:39:57;;;;;;;3.03;2.93;;;6.40;99.90;;;;;;6092795;23;20158;-85
2022/01/24 04:42:32;;;;;;;3.40;3.40;;;7.50;99.90;;;;;;6090105;23;20197;-86
2022/01/24 04:45:28;;;;;;;2.90;2.70;;;6.50;99.90;;;;;;6093031;23;20159;-85
2022/01/24 04:53:48;;;;;;;3.00;3.00;;;6.10;99.90;;;;;;6119337;23;20153;-85
2022/01/24 04:56:13;;;;;;;2.63;2.63;;;6.50;99.90;;;;;;6118200;23;20605;-84
2022/01/24 04:58:39;;;;;;;2.90;2.80;;;5.90;99.90;;;;;;6116144;23;20153;-84
2022/01/24 05:01:04;;;;;;;3.37;3.07;;;6.30;99.90;;;;;;6092164;23;20196;-85
2022/01/24 05:03:30;;;;;;;2.97;2.97;;;6.40;99.90;;;;;;6090853;23;20161;-84
2022/01/24 05:05:55;;;;;;;3.33;3.33;;;6.60;99.90;;;;;;6095610;23;20231;-85
2022/01/24 05:08:21;;;;;;;3.10;3.00;;;6.00;99.90;;;;;;6118356;23;20165;-85
2022/01/24 05:11:04;;;;;;;2.60;2.60;;;6.20;99.90;;;;;;6118367;23;20189;-86
2022/01/24 05:24:13;;;;;;;5.25;3.20;;;6.00;99.90;;;;;;6128459;23;20141;-85
2022/01/24 05:26:39;;;;;;;3.43;3.33;;;5.80;99.90;;;;;;6118445;23;20580;-85
2022/01/24 05:29:04;;;;;;;3.23;3.13;;;5.90;99.90;;;;;;6116390;23;20193;-84
2022/01/24 05:31:30;;;;;;;3.03;3.03;;;8.10;99.90;;;;;;6092904;23;20165;-85
2022/01/24 05:33:55;;;;;;;2.97;2.97;;;6.10;99.90;;;;;;6116263;23;20142;-85
2022/01/24 05:36:21;;;;;;;3.93;3.83;;;6.20;99.90;;;;;;6118588;23;20161;-85
2022/01/24 05:38:46;;;;;;;3.83;3.50;;;5.80;99.90;;;;;;6118927;23;20157;-84
2022/01/24 05:41:12;;;;;;;3.00;2.90;;;6.00;99.90;;;;;;6094318;23;20169;-84
2022/01/24 05:43:38;;;;;;;4.53;4.13;;;6.40;99.90;;;;;;6092964;23;20161;-86
2022/01/24 05:46:03;;;;;;;3.07;2.97;;;6.10;99.90;;;;;;6119397;23;20158;-86
2022/01/24 05:48:29;;;;;;;3.20;3.10;;;6.00;99.90;;;;;;6118793;23;20160;-85
2022/01/24 05:50:54;;;;;;;3.30;3.10;;;6.50;99.90;;;;;;6094733;23;20181;-85
2022/01/24 05:53:20;;;;;;;3.30;3.20;;;6.50;99.90;;;;;;6066305;23;20161;-86
2022/01/24 05:55:46;;;;;;;3.73;3.67;;;6.20;99.90;;;;;;6118494;23;20161;-85
2022/01/24 05:58:11;;;;;;;4.17;4.07;;;6.30;99.90;;;;;;6116202;23;20149;-86
2022/01/24 06:00:37;;;;;;;3.80;3.70;;;6.20;99.90;;;;;;6115747;23;20600;-86
2022/01/24 06:03:03;;;;;;;4.57;4.33;;;8.60;99.90;;;;;;6121462;23;20626;-85
2022/01/24 06:05:29;;;;;;;4.13;3.93;;;6.20;99.90;;;;;;6091462;23;20157;-86
2022/01/24 06:07:55;;;;;;;3.97;3.90;;;6.90;99.90;;;;;;6092001;23;20157;-85
2022/01/24 06:10:21;;;;;;;4.07;3.97;;;6.00;99.90;;;;;;6116114;23;20188;-85
2022/01/24 06:12:46;;;;;;;4.17;4.13;;;6.70;99.90;;;;;;6092421;23;20161;-86
2022/01/24 06:15:13;;;;;;;4.40;4.17;;;6.20;99.90;;;;;;6089543;23;20523;-84
2022/01/24 06:17:38;;;;;;;4.32;4.18;;;5.90;99.90;;;;;;6093028;23;20232;-85
2022/01/24 06:20:06;;;;;;;3.93;3.83;;;6.20;99.90;;;;;;6116587;23;20162;-84
2022/01/24 06:22:31;;;;;;;3.50;3.50;;;6.20;99.90;;;;;;6118331;23;20205;-85
2022/01/24 06:24:57;;;;;;;3.87;3.77;;;6.20;99.90;;;;;;6089956;23;20169;-86
2022/01/24 06:27:23;;;;;;;4.43;4.20;;;6.10;99.90;;;;;;6119863;23;20185;-86
2022/01/24 06:29:48;;;;;;;4.50;4.40;;;6.20;99.90;;;;;;6094147;23;20268;-85
2022/01/24 06:32:14;;;;;;;4.37;4.27;;;5.70;99.90;;;;;;6120775;23;20609;-84
2022/01/24 06:34:40;;;;;;;3.70;3.60;;;6.00;99.90;;;;;;6093932;23;20184;-85
2022/01/24 06:37:06;;;;;;;5.00;4.80;;;7.60;99.90;;;;;;6095811;23;20155;-85
2022/01/24 06:39:32;;;;;;;4.77;4.37;;;6.30;99.90;;;;;;6120204;23;20600;-84
2022/01/24 06:44:35;;;;;;;5.78;3.80;;;6.30;99.90;;;;;;6127075;23;20227;-87
2022/01/24 06:47:01;;;;;;;4.90;4.50;;;6.00;99.90;;;;;;6095533;23;20204;-86
2022/01/24 06:49:27;;;;;;;4.33;4.20;;;6.00;99.90;;;;;;6121135;23;20662;-86
2022/01/24 06:51:55;;;;;;;5.10;4.70;;;6.70;99.90;;;;;;6096030;23;20161;-84
2022/01/24 06:54:21;;;;;;;4.00;3.78;;;6.40;99.90;;;;;;6119406;23;20164;-85
2022/01/24 06:56:46;;;;;;;3.77;3.67;;;6.30;99.90;;;;;;6123178;23;20162;-84
2022/01/24 06:59:12;;;;;;;5.00;4.60;;;5.90;99.90;;;;;;6120026;23;20162;-85
2022/01/24 07:01:38;;;;;;;4.70;4.17;;;6.00;99.90;;;;;;6121482;23;20145;-86
2022/01/24 07:04:04;;;;;;;5.30;5.10;;;6.00;99.90;;;;;;6093266;23;20247;-86
2022/01/24 07:06:29;;;;;;;5.10;4.80;;;6.00;99.90;;;;;;6121872;23;20260;-86
2022/01/24 07:08:55;;;;;;;6.10;5.60;;;5.90;99.90;;;;;;6119031;23;20388;-85
2022/01/24 07:11:21;;;;;;;5.10;4.90;;;5.70;99.90;;;;;;6095248;23;20192;-86
2022/01/24 07:13:46;;;;;;;5.77;5.47;;;5.80;99.90;;;;;;6118978;23;20153;-86
2022/01/24 07:16:13;;;;;;;4.80;4.40;;;6.10;99.90;;;;;;6096390;23;20160;-84
2022/01/24 07:18:58;;;;;;;5.00;4.80;;;5.90;99.90;;;;;;6087233;23;20467;-84
2022/01/24 07:21:24;;;;;;;4.75;4.55;;;5.90;99.90;;;;;;6116929;23;20149;-85
2022/01/24 07:23:49;;;;;;;4.53;4.32;;;6.00;99.90;;;;;;6115771;23;20236;-85
2022/01/24 07:26:15;;;;;;;5.20;4.90;;;6.10;99.90;;;;;;6117085;23;20158;-81
2022/01/24 07:28:41;;;;;;;4.73;4.57;;;6.20;99.90;;;;;;6115686;23;20193;-85
2022/01/24 07:31:07;;;;;;;6.10;5.70;;;6.10;99.90;;;;;;6113788;23;20521;-87
2022/01/24 07:33:32;;;;;;;5.70;5.50;;;6.10;99.90;;;;;;6090396;23;20217;-87
2022/01/24 07:35:58;;;;;;;5.47;5.17;;;6.10;99.90;;;;;;6115633;23;20240;-86
2022/01/24 07:38:24;;;;;;;5.47;5.27;;;6.20;99.90;;;;;;6117563;23;20169;-84
2022/01/24 07:40:53;;;;;;;4.67;4.47;;;6.30;99.90;;;;;;6088605;23;20268;-84
2022/01/24 07:43:19;;;;;;;5.32;4.97;;;7.20;99.90;;;;;;6115874;23;20409;-84
2022/01/24 07:45:47;;;;;;;4.77;4.47;;;5.90;99.90;;;;;;6088429;23;20620;-84
2022/01/24 07:48:14;;;;;;;5.45;5.20;;;6.00;99.90;;;;;;6116352;23;20393;-84
2022/01/24 07:50:44;;;;;;;4.60;4.40;;;5.90;99.90;;;;;;6115367;23;20306;-84
2022/01/24 07:53:12;;;;;;;4.80;4.70;;;6.30;99.90;;;;;;6116034;23;20126;-85
2022/01/24 07:55:38;;;;;;;4.53;4.43;;;5.90;99.90;;;;;;6087439;23;20177;-86
2022/01/24 07:58:04;;;;;;;4.40;4.25;;;5.40;99.90;;;;;;6090492;23;20247;-83
2022/01/24 08:00:31;;;;;;;5.32;4.93;;;6.20;99.90;;;;;;6113485;23;20157;-85
2022/01/24 08:02:57;;;;;;;4.25;3.95;;;6.20;99.90;;;;;;6117626;23;20153;-84
2022/01/24 08:05:23;;;;;;;4.65;4.47;;;6.00;99.90;;;;;;6087376;23;20841;-85
2022/01/24 08:07:48;;;;;;;5.27;5.07;;;6.00;99.90;;;;;;6115879;23;20160;-85
2022/01/24 08:10:14;;;;;;;5.00;4.83;;;5.90;99.90;;;;;;6088076;23;20744;-85
2022/01/24 08:12:43;;;;;;;5.07;4.73;;;6.10;99.90;;;;;;6115869;23;20153;-84
2022/01/24 08:15:12;;;;;;;4.85;4.75;;;6.00;99.90;;;;;;6088097;23;20900;-86
2022/01/24 08:17:38;;;;;;;5.28;5.07;;;6.20;99.90;;;;;;6115189;23;20146;-85
2022/01/24 08:20:04;;;;;;;5.00;4.70;;;6.30;99.90;;;;;;6088753;23;20217;-84
2022/01/24 08:22:29;;;;;;;6.10;5.60;;;6.20;99.90;;;;;;6092273;23;20168;-84
2022/01/24 08:24:55;;;;;;;5.93;5.33;;;6.40;99.90;;;;;;6124606;23;20377;-84
2022/01/24 08:27:25;;;;;;;5.30;5.00;;;6.40;99.90;;;;;;6117577;23;20292;-84
2022/01/24 08:29:51;;;;;;;5.88;5.60;;;6.70;99.90;;;;;;6157062;23;20191;-83
2022/01/24 08:32:18;;;;;;;5.53;5.00;;;6.20;99.90;;;;;;6142536;23;20164;-84
2022/01/24 08:34:43;;;;;;;5.05;4.82;;;6.10;99.90;;;;;;6143298;23;20268;-85
2022/01/24 08:37:09;;;;;;;4.90;4.60;;;6.10;99.90;;;;;;6145162;23;20152;-84
2022/01/24 08:39:35;;;;;;;4.40;4.07;;;6.30;99.90;;;;;;6145218;23;20156;-84
2022/01/24 08:42:11;;;;;;;5.40;4.53;;;6.40;99.90;;;;;;6150873;23;20137;-84
2022/01/24 08:47:23;;;;;;;3.70;3.70;;;6.80;99.90;;;;;;6178444;23;20435;-85
2022/01/24 08:49:49;;;;;;;4.13;3.88;;;6.20;99.90;;;;;;6163725;23;20275;-86
2022/01/24 08:52:15;;;;;;;3.83;3.72;;;6.40;99.90;;;;;;6166496;23;20148;-86
2022/01/24 08:54:40;;;;;;;5.23;4.93;;;6.60;99.90;;;;;;6165772;23;20239;-83
2022/01/24 08:57:07;;;;;;;4.53;3.60;;;6.40;99.90;;;;;;6153456;23;20165;-86
2022/01/24 08:59:33;;;;;;;4.45;4.18;;;6.70;99.90;;;;;;6146557;23;20160;-84
2022/01/24 09:02:00;;;;;;;3.60;3.50;;;6.60;99.90;;;;;;6152502;23;20140;-82
2022/01/24 09:04:26;;;;;;;3.13;3.03;;;6.20;99.90;;;;;;6147993;23;20855;-83
2022/01/24 09:06:52;;;;;;;3.47;3.47;;;6.50;99.90;;;;;;6146536;23;20171;-83
2022/01/24 09:09:19;;;;;;;4.05;3.92;;;6.40;99.90;;;;;;6144581;23;20184;-84
2022/01/24 09:11:45;;;;;;;4.43;4.22;;;6.20;99.90;;;;;;6144290;23;20152;-83
2022/01/24 09:14:11;;;;;;;3.70;3.60;;;6.50;99.90;;;;;;6143558;23;20231;-84
2022/01/24 09:16:37;;;;;;;4.33;4.13;;;6.30;99.90;;;;;;6146851;23;20160;-84
2022/01/24 09:19:06;;;;;;;4.13;4.03;;;9.80;99.90;;;;;;6147772;23;20152;-84
2022/01/24 09:21:34;;;;;;;5.05;4.68;;;6.10;99.90;;;;;;6149325;23;20491;-83
2022/01/24 09:24:03;;;;;;;3.70;3.65;;;6.90;99.90;;;;;;6143863;23;20238;-85
2022/01/24 09:26:29;;;;;;;3.40;3.30;;;7.00;99.90;;;;;;6147888;23;20144;-84
2022/01/24 09:28:54;;;;;;;4.47;4.10;;;6.90;99.90;;;;;;6146496;23;20196;-85
2022/01/24 09:31:22;;;;;;;3.63;3.33;;;6.90;99.90;;;;;;6144251;23;20199;-84
2022/01/24 09:33:48;;;;;;;3.20;3.00;;;7.10;99.90;;;;;;6147655;23;20380;-84
2022/01/24 09:36:14;;;;;;;3.08;3.08;;;6.90;99.90;;;;;;6143845;23;20160;-85
2022/01/24 09:38:40;;;;;;;3.77;3.67;;;6.80;99.90;;;;;;6148730;23;20172;-85
2022/01/24 09:41:08;;;;;;;3.10;3.10;;;6.70;99.90;;;;;;6147014;23;20157;-85
2022/01/24 09:43:34;;;;;;;4.13;4.03;;;7.30;99.90;;;;;;6147699;23;20577;-84
2022/01/24 09:46:03;;;;;;;3.93;3.73;;;6.70;99.90;;;;;;6143553;23;20153;-84
2022/01/24 09:48:29;;;;;;;4.40;4.30;;;7.10;99.90;;;;;;6147565;23;20153;-85
2022/01/24 09:50:55;;;;;;;4.00;3.90;;;6.70;99.90;;;;;;6144052;23;20188;-83
2022/01/24 09:53:24;;;;;;;3.90;3.80;;;7.10;99.90;;;;;;6145994;23;20251;-85
2022/01/24 09:55:50;;;;;;;7.57;4.50;;;7.00;99.90;;;;;;6146735;23;20211;-85
2022/01/24 09:58:17;;;;;;;4.13;4.03;;;7.40;99.90;;;;;;6150233;23;20183;-84
2022/01/24 10:00:43;;;;;;;4.72;4.32;;;9.90;99.90;;;;;;6147641;23;20179;-84
2022/01/24 10:03:12;;;;;;;5.10;4.70;;;10.00;99.90;;;;;;6146941;23;20164;-84
2022/01/24 10:05:39;;;;;;;3.50;3.50;;;9.50;99.90;;;;;;6144639;23;20549;-85
2022/01/24 10:08:07;;;;;;;4.15;3.65;;;7.20;99.90;;;;;;6145794;23;20157;-83
2022/01/24 10:10:47;;;;;;;4.22;3.92;;;7.20;99.90;;;;;;6144956;23;20534;-84
2022/01/24 10:16:48;;;;;;;5.13;4.72;;;7.60;99.90;;;;;;6156026;23;20148;-82
2022/01/24 10:19:22;;;;;;;4.45;4.35;;;7.40;99.90;;;;;;6154993;23;20153;-84
2022/01/24 10:21:51;;;;;;;4.63;4.53;;;7.50;99.90;;;;;;6154312;23;20146;-85
2022/01/24 10:24:26;;;;;;;5.80;5.47;;;8.40;99.90;;;;;;6151526;23;20862;-84
2022/01/24 10:27:15;;;;;;;5.72;5.43;;;9.10;99.90;;;;;;6152504;23;20216;-82
2022/01/24 10:30:10;;;;;;;4.38;4.28;;;7.70;99.90;;;;;;6120600;23;20330;-83
2022/01/24 10:32:45;;;;;;;4.07;3.88;;;7.30;99.90;;;;;;6100268;23;20173;-84
2022/01/24 10:35:50;;;;;;;4.63;4.40;;;6.50;99.90;;;;;;6122993;23;20220;-84
2022/01/24 10:42:09;;;;;;;4.18;3.88;;;7.60;99.90;;;;;;6119887;23;20180;-85
2022/01/24 10:44:37;;;;;;;3.70;3.50;;;7.50;99.90;;;;;;6118591;23;20201;-85
2022/01/24 10:47:15;;;;;;;4.43;4.32;;;7.30;99.90;;;;;;6093698;23;20209;-85
2022/01/24 10:49:41;;;;;;;5.35;4.95;;;7.60;99.90;;;;;;6091958;23;20188;-84
2022/01/24 10:52:13;;;;;;;5.40;5.05;;;7.00;99.90;;;;;;6093853;23;20157;-84
2022/01/24 10:54:39;;;;;;;4.10;3.78;;;7.70;99.90;;;;;;6090843;23;20165;-85
2022/01/24 10:59:49;;;;;;;4.40;4.10;;;7.90;99.90;;;;;;6167649;23;20234;-91
2022/01/24 11:03:04;;;;;;;4.07;3.78;;;7.80;99.90;;;;;;6146921;23;20176;-93
2022/01/24 11:05:37;;;;;;;3.20;3.20;;;8.10;99.90;;;;;;6104875;22;20215;-82
2022/01/24 11:08:17;;;;;;;3.97;3.88;;;8.40;99.90;;;;;;6155218;23;20164;-84
2022/01/24 11:10:46;;;;;;;4.20;4.10;;;8.50;99.90;;;;;;6154118;23;20204;-82
2022/01/24 11:13:13;;;;;;;4.40;4.20;;;8.50;99.90;;;;;;6128780;23;20161;-84
2022/01/24 11:15:54;;;;;;;4.10;4.00;;;8.60;99.90;;;;;;6148318;23;20583;-83
2022/01/24 11:18:20;;;;;;;4.77;4.37;;;8.50;99.90;;;;;;6124764;23;20510;-83
2022/01/24 11:20:46;;;;;;;8.70;5.17;;;8.80;99.90;;;;;;6122262;23;20754;-82
2022/01/24 11:23:13;;;;;;;4.70;4.50;;;8.90;99.90;;;;;;6124205;23;20447;-83
2022/01/24 11:25:43;;;;;;;4.67;4.40;;;9.00;99.90;;;;;;6122652;23;20644;-83
2022/01/24 11:28:10;;;;;;;5.40;5.10;;;9.10;99.90;;;;;;6125217;23;20525;-84
2022/01/24 11:31:22;;;;;;;6.07;4.43;;;9.50;99.90;;;;;;6122942;23;20308;-83
2022/01/24 11:33:59;;;;;;;4.60;4.50;;;9.60;99.90;;;;;;6032352;23;20218;-84
2022/01/24 11:36:43;;;;;;;5.27;4.70;;;9.60;99.90;;;;;;6110657;23;20497;-84
2022/01/24 11:39:08;;;;;;;4.15;3.92;;;9.70;99.90;;;;;;6155412;23;20464;-83
2022/01/24 11:41:38;;;;;;;5.70;5.40;;;9.50;99.90;;;;;;6156463;23;20145;-83
2022/01/24 11:44:20;;;;;;;4.68;4.32;;;10.80;99.90;;;;;;6155503;23;20149;-82
2022/01/24 11:46:55;;;;;;;4.70;4.50;;;10.70;99.90;;;;;;6156749;23;20144;-84
2022/01/24 11:49:32;;;;;;;5.55;5.15;;;9.10;99.90;;;;;;6151851;23;20207;-80
2022/01/24 11:52:19;;;;;;;6.40;5.90;;;8.90;99.90;;;;;;6154639;23;20137;-82
2022/01/24 11:57:37;;;;;;;8.98;5.88;;;8.90;99.90;;;;;;6164603;23;20364;-84
2022/01/24 12:00:05;;;;;;;9.07;6.55;;;8.90;99.90;;;;;;6097666;23;20196;-83
2022/01/24 12:02:43;;;;;;;5.60;5.10;;;9.00;99.90;;;;;;6099582;23;20158;-83
2022/01/24 12:05:14;;;;;;;5.88;5.68;;;8.80;99.90;;;;;;6121187;23;20444;-79
2022/01/24 12:07:46;;;;;;;5.60;5.30;;;8.70;99.90;;;;;;6125241;23;20613;-81
2022/01/24 12:10:21;;;;;;;5.82;5.47;;;8.80;99.90;;;;;;6123108;23;20885;-83
2022/01/24 12:12:50;;;;;;;6.13;5.63;;;8.20;99.90;;;;;;6126888;23;20231;-82
2022/01/24 12:15:38;;;;;;;5.90;5.65;;;10.10;99.90;;;;;;6097046;23;20212;-83
2022/01/24 12:18:42;;;;;;;5.78;5.57;;;8.70;99.90;;;;;;6126243;23;20310;-83
2022/01/24 12:21:29;;;;;;;5.57;5.38;;;8.80;99.90;;;;;;6125328;23;20150;-81
2022/01/24 12:24:05;;;;;;;6.68;6.28;;;8.80;99.90;;;;;;6125803;23;20152;-84
2022/01/24 12:26:37;;;;;;;6.60;6.22;;;8.00;99.90;;;;;;6126628;23;20544;-84
2022/01/24 12:29:13;;;;;;;6.15;5.55;;;8.30;99.90;;;;;;6130058;23;20165;-85
2022/01/24 12:31:50;;;;;;;6.60;6.20;;;8.60;99.90;;;;;;6110252;23;20153;-85
2022/01/24 12:34:23;;;;;;;6.00;5.72;;;8.50;99.90;;;;;;6126484;23;20133;-84
2022/01/24 12:37:00;;;;;;;6.50;6.20;;;8.50;99.90;;;;;;6135183;23;20228;-81
2022/01/24 12:39:51;;;;;;;6.35;6.00;;;10.00;99.90;;;;;;6113171;23;20149;-84
2022/01/24 12:48:15;;;;;;;6.03;5.72;;;7.90;99.90;;;;;;6138234;23;20145;-80
2022/01/24 12:50:47;;;;;;;7.25;6.32;;;7.90;99.90;;;;;;6115436;23;20208;-84
2022/01/24 12:53:16;;;;;;;6.85;6.45;;;9.10;99.90;;;;;;6115012;23;20172;-85
2022/01/24 12:55:44;;;;;;;7.10;6.50;;;7.80;99.90;;;;;;6139738;23;20233;-85
2022/01/24 12:58:10;;;;;;;6.90;6.30;;;7.90;99.90;;;;;;6134784;23;20260;-84
2022/01/24 13:00:40;;;;;;;6.60;6.17;;;;;;;;;;6136493;23;20165;-84
2022/01/24 13:03:06;;;;;;;6.80;6.40;;;8.00;99.90;;;;;;6095567;23;20878;-79
2022/01/24 13:05:38;;;;;;;5.10;5.00;;;8.00;99.90;;;;;;6106778;23;20249;-82
2022/01/24 13:08:04;;;;;;;6.20;5.90;;;8.20;99.90;;;;;;6120145;23;20573;-81
2022/01/24 13:10:30;;;;;;;6.70;6.30;;;8.10;99.90;;;;;;6119516;23;20497;-82
2022/01/24 13:13:01;;;;;;;8.65;7.95;;;9.90;99.90;;;;;;6121083;23;20413;-82
2022/01/24 13:21:16;;;;;;;8.30;7.65;;;8.10;99.90;;;;;;6119085;23;20410;-80
2022/01/24 13:23:51;;;;;;;6.90;6.30;;;7.90;99.90;;;;;;6142711;23;20168;-83
2022/01/24 13:26:16;;;;;;;8.23;7.40;;;7.90;99.90;;;;;;6117016;23;20407;-84
2022/01/24 13:28:43;;;;;;;7.53;6.97;;;7.70;99.90;;;;;;6119695;23;20154;-80
2022/01/24 13:31:09;;;;;;;8.23;7.53;;;9.20;99.90;;;;;;6140731;23;20276;-81
2022/01/24 13:33:39;;;;;;;8.18;7.57;;;8.50;99.90;;;;;;6121987;23;20207;-82
2022/01/24 13:36:08;;;;;;;7.07;5.95;;;7.30;99.90;;;;;;6116150;23;20149;-81
2022/01/24 13:38:45;;;;;;;8.73;7.60;;;7.90;99.90;;;;;;6121087;23;20153;-82
2022/01/24 13:41:29;;;;;;;8.05;7.40;;;7.50;99.90;;;;;;6117113;23;20145;-81
2022/01/24 13:44:04;;;;;;;8.23;7.53;;;7.20;99.90;;;;;;6119299;23;20152;-82
2022/01/24 13:46:39;;;;;;;6.93;6.38;;;7.40;99.90;;;;;;6116801;23;20235;-81
2022/01/24 13:49:15;;;;;;;6.23;5.80;;;7.30;99.90;;;;;;6140412;23;20484;-84
2022/01/24 13:51:54;;;;;;;8.13;7.10;;;7.60;99.90;;;;;;6112623;23;20593;-82
2022/01/24 13:54:29;;;;;;;8.13;7.53;;;7.60;99.90;;;;;;6114411;23;20168;-82
2022/01/24 13:56:57;;;;;;;7.85;7.22;;;7.70;99.90;;;;;;6116443;23;20153;-82
2022/01/24 13:59:25;;;;;;;8.52;8.02;;;7.70;99.90;;;;;;6116665;23;20181;-79
2022/01/24 14:02:06;;;;;;;8.13;7.57;;;7.80;99.90;;;;;;6117162;23;20177;-82
2022/01/24 14:04:34;;;;;;;8.13;7.53;;;7.50;99.90;;;;;;6115789;23;20196;-82
2022/01/24 14:07:06;;;;;;;7.35;6.47;;;7.40;99.90;;;;;;6113528;23;20405;-82
2022/01/24 14:09:53;;;;;;;6.18;5.70;;;7.40;99.90;;;;;;6118581;23;20694;-82
2022/01/24 14:12:36;;;;;;;7.03;6.50;;;7.70;99.90;;;;;;6118224;23;20230;-82
2022/01/24 14:18:22;;;;;;;8.05;7.60;;;7.70;99.90;;;;;;6089893;23;20636;-80
2022/01/24 14:20:51;;;;;;;7.43;6.93;;;7.70;99.90;;;;;;6093591;23;20585;-83
2022/01/24 14:23:38;;;;;;;8.15;7.50;;;9.40;99.90;;;;;;6095522;23;20408;-80
2022/01/24 14:26:14;;;;;;;6.93;6.43;;;9.30;99.90;;;;;;6092254;23;20161;-84
2022/01/24 14:28:40;;;;;;;7.60;6.90;;;8.00;99.90;;;;;;6119535;23;20309;-82
2022/01/24 14:31:12;;;;;;;9.15;8.15;;;7.70;99.90;;;;;;6121850;23;20556;-82
2022/01/24 14:33:38;;;;;;;7.93;7.43;;;7.30;99.90;;;;;;6093666;23;20206;-81
2022/01/24 14:36:11;;;;;;;7.90;7.20;;;7.30;99.90;;;;;;6090768;23;20165;-82
2022/01/24 14:38:42;;;;;;;8.13;7.40;;;7.70;99.90;;;;;;6092943;23;20754;-81
2022/01/24 14:41:15;;;;;;;9.05;8.48;;;7.20;99.90;;;;;;6115478;23;20577;-79
2022/01/24 14:46:31;;;;;;;7.47;7.10;;;7.20;99.90;;;;;;6117414;23;20386;-80
2022/01/24 14:49:03;;;;;;;8.10;7.53;;;8.30;99.90;;;;;;6115663;23;20157;-79
2022/01/24 14:51:41;;;;;;;7.75;7.15;;;7.20;99.90;;;;;;6117552;23;20433;-81
2022/01/24 14:54:11;;;;;;;8.60;7.33;;;7.00;99.90;;;;;;6118215;23;20453;-80
2022/01/24 14:56:39;;;;;;;8.15;7.15;;;7.20;99.90;;;;;;6125093;23;20447;-83
2022/01/24 14:59:06;;;;;;;8.10;7.50;;;6.90;99.90;;;;;;6094043;23;20449;-81
2022/01/24 15:01:33;;;;;;;8.35;7.55;;;7.60;99.90;;;;;;6092228;23;20157;-82
2022/01/24 15:04:00;;;;;;;7.68;7.10;;;7.00;99.90;;;;;;6100783;23;20452;-84
2022/01/24 15:06:27;;;;;;;7.47;6.72;;;7.10;99.90;;;;;;6127687;23;20323;-82
2022/01/24 15:08:56;;;;;;;8.88;6.60;;;6.90;99.90;;;;;;6123986;23;20153;-81
2022/01/24 15:11:28;;;;;;;7.35;6.90;;;6.90;99.90;;;;;;6123863;23;20208;-81
2022/01/24 15:14:02;;;;;;;6.28;5.97;;;6.50;99.90;;;;;;6096025;23;20149;-84
2022/01/24 15:27:11;;;;;;;7.80;7.30;;;6.70;99.90;;;;;;6122589;23;20384;-82
2022/01/24 15:29:37;;;;;;;9.65;7.85;;;6.50;99.90;;;;;;6124092;23;20486;-82
2022/01/24 15:32:04;;;;;;;9.05;6.95;;;6.80;99.90;;;;;;6094636;23;20189;-82